createdAt,value
2017-10-09T00:01:21.189Z,10.23
2017-10-09T00:03:49.545Z,14.00
2017-10-09T00:06:18.004Z,12.10
2017-10-09T00:08:49.723Z,8.43
2017-10-09T00:11:18.860Z,15.50
2017-10-09T00:13:47.222Z,10.43
2017-10-09T00:16:16.342Z,14.93
2017-10-09T00:18:44.516Z,9.20
2017-10-09T00:21:12.919Z,14.97
2017-10-09T00:23:42.674Z,13.57
2017-10-09T00:26:10.831Z,9.40
2017-10-09T00:28:39.026Z,10.43
2017-10-09T00:31:07.200Z,10.07
2017-10-09T00:33:35.415Z,11.40
2017-10-09T00:36:04.540Z,13.43
2017-10-09T00:38:32.935Z,12.47
2017-10-09T00:41:01.366Z,17.83
2017-10-09T00:43:29.713Z,9.30
2017-10-09T00:45:58.087Z,11.70
2017-10-09T00:48:26.506Z,10.80
2017-10-09T00:50:55.495Z,10.93
2017-10-09T00:53:24.856Z,21.80
2017-10-09T00:55:52.586Z,9.80
2017-10-09T00:58:20.925Z,16.20
2017-10-09T01:00:48.943Z,13.83
2017-10-09T01:03:17.411Z,12.83
2017-10-09T01:05:45.808Z,13.13
2017-10-09T01:08:14.197Z,12.80
2017-10-09T01:10:41.880Z,9.93
2017-10-09T01:13:10.230Z,14.43
2017-10-09T01:15:38.244Z,10.30
2017-10-09T01:18:09.513Z,13.37
2017-10-09T01:20:37.870Z,11.03
2017-10-09T01:23:06.364Z,13.20
2017-10-09T01:25:34.718Z,9.40
2017-10-09T01:28:04.753Z,10.47
2017-10-09T01:30:36.178Z,13.20
2017-10-09T01:33:04.582Z,15.20
2017-10-09T01:35:32.954Z,12.47
2017-10-09T01:38:01.307Z,17.20
2017-10-09T01:40:29.670Z,9.47
2017-10-09T01:42:58.026Z,12.53
2017-10-09T01:45:26.382Z,10.40
2017-10-09T01:47:55.326Z,16.13
2017-10-09T01:50:23.729Z,12.93
2017-10-09T01:52:51.995Z,13.87
2017-10-09T01:55:20.174Z,11.93
2017-10-09T01:57:48.534Z,13.63
2017-10-09T02:00:16.894Z,13.67
2017-10-09T02:02:45.255Z,13.50
2017-10-09T02:05:15.000Z,18.77
2017-10-09T02:07:43.479Z,12.10
2017-10-09T02:10:11.830Z,15.20
2017-10-09T02:12:40.230Z,10.70
2017-10-09T02:15:08.578Z,11.00
2017-10-09T02:17:37.714Z,14.43
2017-10-09T02:20:06.077Z,11.57
2017-10-09T02:22:34.469Z,11.87
2017-10-09T02:25:02.828Z,11.43
2017-10-09T02:27:31.184Z,11.80
2017-10-09T02:30:00.308Z,13.63
2017-10-09T02:32:28.682Z,11.10
2017-10-09T02:34:57.067Z,15.27
2017-10-09T02:37:25.691Z,13.37
2017-10-09T02:39:54.044Z,12.50
2017-10-09T02:42:22.404Z,14.00
2017-10-09T02:44:50.770Z,13.00
2017-10-09T02:47:18.941Z,11.30
2017-10-09T02:49:47.311Z,14.13
2017-10-09T02:52:15.555Z,15.53
2017-10-09T02:54:43.737Z,9.87
2017-10-09T02:57:12.125Z,12.63
2017-10-09T02:59:40.396Z,15.53
2017-10-09T03:02:08.876Z,10.30
2017-10-09T03:04:37.221Z,11.10
2017-10-09T03:07:05.590Z,12.33
2017-10-09T03:09:33.982Z,12.50
2017-10-09T03:12:02.449Z,11.77
2017-10-09T03:14:30.617Z,13.07
2017-10-09T03:16:59.754Z,12.53
2017-10-09T03:19:28.132Z,12.63
2017-10-09T03:21:56.320Z,11.50
2017-10-09T03:27:34.062Z,13.87
2017-10-09T03:30:02.281Z,15.70
2017-10-09T03:32:30.469Z,14.50
2017-10-09T03:34:58.644Z,13.67
2017-10-09T03:37:26.850Z,13.03
2017-10-09T03:39:55.220Z,13.87
2017-10-09T03:42:23.399Z,11.53
2017-10-09T03:44:51.695Z,14.03
2017-10-09T03:47:19.878Z,13.03
2017-10-09T03:49:47.924Z,11.20
2017-10-09T03:52:17.055Z,11.37
2017-10-09T03:54:45.430Z,12.33
2017-10-09T03:57:13.810Z,15.60
2017-10-09T03:59:42.157Z,13.97
2017-10-09T04:02:10.527Z,11.80
2017-10-09T04:04:38.896Z,13.27
2017-10-09T04:07:08.035Z,12.73
2017-10-09T04:09:36.524Z,11.80
2017-10-09T04:12:04.883Z,13.93
2017-10-09T04:14:33.255Z,10.60
2017-10-09T04:17:01.818Z,11.07
2017-10-09T04:19:30.175Z,15.33
2017-10-09T04:21:58.566Z,11.20
2017-10-09T04:24:26.946Z,12.07
2017-10-09T04:26:55.231Z,10.53
2017-10-09T04:29:23.404Z,9.87
2017-10-09T04:31:51.603Z,9.93
2017-10-09T04:34:19.769Z,10.20
2017-10-09T04:36:48.144Z,10.53
2017-10-09T04:39:16.710Z,10.10
2017-10-09T04:41:45.087Z,13.47
2017-10-09T04:44:13.557Z,10.90
2017-10-09T04:46:41.995Z,10.00
2017-10-09T04:49:10.170Z,10.70
2017-10-09T04:51:38.688Z,11.00
2017-10-09T04:54:07.125Z,11.50
2017-10-09T04:56:36.499Z,17.27
2017-10-09T04:59:04.874Z,17.93
2017-10-09T05:01:33.240Z,10.57
2017-10-09T05:04:01.622Z,10.93
2017-10-09T05:06:29.663Z,12.77
2017-10-09T05:08:58.034Z,10.40
2017-10-09T05:11:26.854Z,18.70
2017-10-09T05:13:55.290Z,13.00
2017-10-09T05:16:23.658Z,27.17
2017-10-09T05:18:52.009Z,20.53
2017-10-09T05:21:20.386Z,13.33
2017-10-09T05:23:48.758Z,16.93
2017-10-09T05:26:17.135Z,17.57
2017-10-09T05:28:45.509Z,32.37
2017-10-09T05:31:13.883Z,17.00
2017-10-09T05:33:42.287Z,19.27
2017-10-09T05:36:10.671Z,12.47
2017-10-09T05:38:39.034Z,13.10
2017-10-09T05:41:07.533Z,14.07
2017-10-09T05:43:35.909Z,18.40
2017-10-09T05:46:04.379Z,17.30
2017-10-09T05:48:32.974Z,12.33
2017-10-09T05:51:01.370Z,12.80
2017-10-09T05:53:29.737Z,18.10
2017-10-09T05:55:58.162Z,14.40
2017-10-09T05:58:26.530Z,11.23
2017-10-09T06:00:55.674Z,15.33
2017-10-09T06:03:24.082Z,10.90
2017-10-09T06:05:52.523Z,13.50
2017-10-09T06:08:20.906Z,11.07
2017-10-09T06:10:49.582Z,16.20
2017-10-09T06:13:18.027Z,10.93
2017-10-09T06:15:46.420Z,12.67
2017-10-09T06:18:14.824Z,10.73
2017-10-09T06:20:43.446Z,13.27
2017-10-09T06:23:12.561Z,12.33
2017-10-09T06:25:40.930Z,17.93
2017-10-09T06:28:09.441Z,15.50
2017-10-09T06:30:37.820Z,11.50
2017-10-09T06:33:06.188Z,10.03
2017-10-09T06:35:34.876Z,12.13
2017-10-09T06:38:03.229Z,10.53
2017-10-09T06:40:32.374Z,13.53
2017-10-09T06:43:00.933Z,14.50
2017-10-09T06:45:29.309Z,10.27
2017-10-09T06:47:57.679Z,9.97
2017-10-09T06:50:26.045Z,17.67
2017-10-09T06:52:54.394Z,10.17
2017-10-09T06:55:23.555Z,9.93
2017-10-09T06:57:51.915Z,16.60
2017-10-09T07:00:20.289Z,10.20
2017-10-09T07:02:48.663Z,9.80
2017-10-09T07:05:17.273Z,11.77
2017-10-09T07:07:45.626Z,12.30
2017-10-09T07:10:14.064Z,12.53
2017-10-09T07:12:42.480Z,13.47
2017-10-09T07:15:10.858Z,10.97
2017-10-09T07:17:39.227Z,11.60
2017-10-09T07:20:07.794Z,18.17
2017-10-09T07:22:36.175Z,13.37
2017-10-09T07:25:04.358Z,15.13
2017-10-09T07:27:32.546Z,11.43
2017-10-09T07:30:01.055Z,13.40
2017-10-09T07:32:29.427Z,16.50
2017-10-09T07:34:57.796Z,11.60
2017-10-09T07:37:26.157Z,14.10
2017-10-09T07:39:55.418Z,17.57
2017-10-09T07:42:23.762Z,16.10
2017-10-09T07:44:52.771Z,15.70
2017-10-09T07:47:21.159Z,14.60
2017-10-09T07:49:49.535Z,17.83
2017-10-09T07:52:17.889Z,18.00
2017-10-09T07:54:46.260Z,17.17
2017-10-09T07:57:21.118Z,15.13
2017-10-09T07:59:49.558Z,13.77
2017-10-09T08:02:18.971Z,16.73
2017-10-09T08:04:47.341Z,13.43
2017-10-09T08:07:16.578Z,16.23
2017-10-09T08:09:46.307Z,19.30
2017-10-09T08:12:14.677Z,17.87
2017-10-09T08:14:43.747Z,15.40
2017-10-09T08:17:13.535Z,11.70
2017-10-09T08:19:41.921Z,14.00
2017-10-09T08:22:10.368Z,11.57
2017-10-09T08:24:38.758Z,11.93
2017-10-09T08:27:07.144Z,11.20
2017-10-09T08:29:35.512Z,10.13
2017-10-09T08:32:03.682Z,12.60
2017-10-09T08:34:32.041Z,9.13
2017-10-09T08:37:00.411Z,8.67
2017-10-09T08:39:28.789Z,9.37
2017-10-09T08:41:56.960Z,11.10
2017-10-09T08:44:26.090Z,8.50
2017-10-09T08:46:54.436Z,6.27
2017-10-09T08:49:22.826Z,7.77
2017-10-09T08:51:51.174Z,5.60
2017-10-09T08:54:19.541Z,8.10
2017-10-09T08:56:48.695Z,5.40
2017-10-09T08:59:17.169Z,5.53
2017-10-09T09:01:45.545Z,8.63
2017-10-09T09:04:13.906Z,9.00
2017-10-09T09:06:42.261Z,10.20
2017-10-09T09:09:11.390Z,10.03
2017-10-09T09:11:39.775Z,9.20
2017-10-09T09:14:08.195Z,8.13
2017-10-09T09:16:36.834Z,8.23
2017-10-09T09:19:05.163Z,11.50
2017-10-09T09:21:34.338Z,9.93
2017-10-09T09:24:02.731Z,11.27
2017-10-09T09:26:31.407Z,11.70
2017-10-09T09:28:59.774Z,7.97
2017-10-09T09:31:28.306Z,11.10
2017-10-09T09:33:56.412Z,14.13
2017-10-09T09:36:24.782Z,9.10
2017-10-09T09:38:53.203Z,10.27
2017-10-09T09:41:21.652Z,10.47
2017-10-09T09:43:50.058Z,9.10
2017-10-09T09:46:19.207Z,14.63
2017-10-09T09:48:47.639Z,10.80
2017-10-09T09:51:16.026Z,15.30
2017-10-09T09:53:44.408Z,15.40
2017-10-09T09:56:12.782Z,13.57
2017-10-09T09:58:41.152Z,16.73
2017-10-09T10:01:09.541Z,16.77
2017-10-09T10:03:37.919Z,18.87
2017-10-09T10:06:06.305Z,22.03
2017-10-09T10:08:34.687Z,20.57
2017-10-09T10:11:03.062Z,17.80
2017-10-09T10:13:31.435Z,25.40
2017-10-09T10:15:59.820Z,21.10
2017-10-09T10:18:28.206Z,20.80
2017-10-09T10:20:58.082Z,24.60
2017-10-09T10:23:26.509Z,26.50
2017-10-09T10:25:54.866Z,23.53
2017-10-09T10:28:23.233Z,21.30
2017-10-09T10:30:51.602Z,25.10
2017-10-09T10:33:20.017Z,23.80
2017-10-09T10:35:48.540Z,31.60
2017-10-09T10:38:16.911Z,25.00
2017-10-09T10:40:45.290Z,24.37
2017-10-09T10:43:13.875Z,28.53
2017-10-09T10:45:42.234Z,29.90
2017-10-09T10:48:10.600Z,32.83
2017-10-09T10:50:38.959Z,27.80
2017-10-09T10:53:07.336Z,23.80
2017-10-09T10:55:35.718Z,32.43
2017-10-09T10:58:04.089Z,30.37
2017-10-09T11:00:32.514Z,29.90
2017-10-09T11:03:00.988Z,30.93
2017-10-09T11:05:29.374Z,29.03
2017-10-09T11:07:57.798Z,31.73
2017-10-09T11:10:26.418Z,33.93
2017-10-09T11:12:55.118Z,36.50
2017-10-09T11:15:23.511Z,39.33
2017-10-09T11:17:52.167Z,37.60
2017-10-09T11:20:20.764Z,38.10
2017-10-09T11:22:49.165Z,36.30
2017-10-09T11:25:17.533Z,36.40
2017-10-09T11:27:45.900Z,44.00
2017-10-09T11:30:15.128Z,39.20
2017-10-09T11:32:43.495Z,34.37
2017-10-09T11:35:11.894Z,40.60
2017-10-09T11:37:42.533Z,42.17
2017-10-09T11:40:10.888Z,40.23
2017-10-09T11:42:39.249Z,37.27
2017-10-09T11:45:10.164Z,40.50
2017-10-09T11:47:40.522Z,40.80
2017-10-09T11:50:11.807Z,38.37
2017-10-09T11:52:40.279Z,39.80
2017-10-09T11:55:08.867Z,35.13
2017-10-09T11:57:38.482Z,37.60
2017-10-09T12:00:07.249Z,34.70
2017-10-09T12:02:38.397Z,37.53
2017-10-09T12:05:09.541Z,36.73
2017-10-09T12:07:54.902Z,39.40
2017-10-09T12:10:29.454Z,42.17
2017-10-09T12:12:58.055Z,34.80
2017-10-09T12:15:29.539Z,33.33
2017-10-09T12:17:59.162Z,37.33
2017-10-09T12:20:27.520Z,38.27
2017-10-09T12:22:55.947Z,37.80
2017-10-09T12:25:24.316Z,29.47
2017-10-09T12:27:52.689Z,31.17
2017-10-09T12:30:21.049Z,27.70
2017-10-09T12:32:49.467Z,34.23
2017-10-09T12:35:17.842Z,29.63
2017-10-09T12:37:46.813Z,28.60
2017-10-09T12:40:15.363Z,28.43
2017-10-09T12:42:43.998Z,27.97
2017-10-09T12:45:12.358Z,29.00
2017-10-09T12:47:40.764Z,30.87
2017-10-09T12:50:09.900Z,28.77
2017-10-09T12:52:38.284Z,28.47
2017-10-09T12:55:06.665Z,27.80
2017-10-09T12:57:35.190Z,30.00
2017-10-09T13:00:03.650Z,29.43
2017-10-09T13:02:32.022Z,27.87
2017-10-09T13:05:00.401Z,29.23
2017-10-09T13:07:28.792Z,39.00
2017-10-09T13:09:57.929Z,25.97
2017-10-09T13:12:26.313Z,24.07
2017-10-09T13:14:54.714Z,34.73
2017-10-09T13:17:23.191Z,23.97
2017-10-09T13:19:51.728Z,27.73
2017-10-09T13:22:20.142Z,33.23
2017-10-09T13:24:48.515Z,27.67
2017-10-09T13:27:16.903Z,26.83
2017-10-09T13:29:45.274Z,24.60
2017-10-09T13:32:13.675Z,26.77
2017-10-09T13:34:42.823Z,29.63
2017-10-09T13:37:11.202Z,26.77
2017-10-09T13:39:39.579Z,34.83
2017-10-09T13:42:07.977Z,30.10
2017-10-09T13:44:36.352Z,31.90
2017-10-09T13:47:04.736Z,32.37
2017-10-09T13:49:33.431Z,29.93
2017-10-09T13:52:01.873Z,32.03
2017-10-09T13:54:30.265Z,24.93
2017-10-09T13:56:58.639Z,24.00
2017-10-09T13:59:26.999Z,29.27
2017-10-09T14:01:55.218Z,29.60
2017-10-09T14:04:23.593Z,29.13
2017-10-09T14:06:51.957Z,32.50
2017-10-09T14:09:20.334Z,29.20
2017-10-09T14:11:49.536Z,28.00
2017-10-09T14:14:18.694Z,24.53
2017-10-09T14:16:47.226Z,22.53
2017-10-09T14:19:16.363Z,24.80
2017-10-09T14:21:44.740Z,24.93
2017-10-09T14:24:13.163Z,18.83
2017-10-09T14:26:42.346Z,20.53
2017-10-09T14:29:10.732Z,19.83
2017-10-09T14:41:32.606Z,20.57
2017-10-09T14:44:01.745Z,20.47
2017-10-09T14:46:30.154Z,19.37
2017-10-09T14:48:58.522Z,19.57
2017-10-09T14:51:26.926Z,19.50
2017-10-09T14:53:55.652Z,19.30
2017-10-09T14:56:25.958Z,22.77
2017-10-09T14:58:54.339Z,19.77
2017-10-09T15:01:22.833Z,17.83
2017-10-09T15:03:51.188Z,19.67
2017-10-09T15:06:19.582Z,17.97
2017-10-09T15:08:48.780Z,22.63
2017-10-09T15:11:16.963Z,24.80
2017-10-09T15:13:45.326Z,21.40
2017-10-09T15:16:13.707Z,20.50
2017-10-09T15:18:42.088Z,20.87
2017-10-09T15:21:10.481Z,19.00
2017-10-09T15:23:38.933Z,24.03
2017-10-09T15:26:07.323Z,20.33
2017-10-09T15:28:35.872Z,20.43
2017-10-09T15:31:04.469Z,19.10
2017-10-09T15:33:32.668Z,18.77
2017-10-09T15:36:02.374Z,23.10
2017-10-09T15:38:30.697Z,20.83
2017-10-09T15:40:59.495Z,25.43
2017-10-09T15:43:27.984Z,20.10
2017-10-09T15:45:56.372Z,21.27
2017-10-09T15:48:24.748Z,21.17
2017-10-09T15:50:53.148Z,23.07
2017-10-09T15:53:21.700Z,19.80
2017-10-09T15:55:50.175Z,21.57
2017-10-09T15:58:18.715Z,24.10
2017-10-09T16:00:47.091Z,21.87
2017-10-09T16:03:15.445Z,18.33
2017-10-09T16:05:43.843Z,22.00
2017-10-09T16:08:12.208Z,21.50
2017-10-09T16:10:40.582Z,23.10
2017-10-09T16:13:09.008Z,25.47
2017-10-09T16:15:37.387Z,21.47
2017-10-09T16:18:05.865Z,20.07
2017-10-09T16:20:34.224Z,27.20
2017-10-09T16:23:02.847Z,24.33
2017-10-09T16:25:31.224Z,21.93
2017-10-09T16:27:59.589Z,23.30
2017-10-09T16:30:27.967Z,24.77
2017-10-09T16:32:56.403Z,23.10
2017-10-09T16:35:25.547Z,22.97
2017-10-09T16:37:53.944Z,24.70
2017-10-09T16:40:22.324Z,32.13
2017-10-09T16:42:50.546Z,26.77
2017-10-09T16:45:18.962Z,30.43
2017-10-09T16:47:47.139Z,27.93
2017-10-09T16:50:15.510Z,30.97
2017-10-09T16:52:45.396Z,34.27
2017-10-09T16:55:13.596Z,30.37
2017-10-09T16:57:41.977Z,32.53
2017-10-09T17:00:10.381Z,31.60
2017-10-09T17:02:39.529Z,37.37
2017-10-09T17:05:07.919Z,36.37
2017-10-09T17:07:37.811Z,37.70
2017-10-09T17:10:06.190Z,33.77
2017-10-09T17:12:34.577Z,39.60
2017-10-09T17:15:03.755Z,34.40
2017-10-09T17:17:32.296Z,33.70
2017-10-09T17:20:01.168Z,30.83
2017-10-09T17:22:29.352Z,30.87
2017-10-09T17:24:57.855Z,26.10
2017-10-09T17:27:26.963Z,26.57
2017-10-09T17:29:55.548Z,24.13
2017-10-09T17:32:23.912Z,23.30
2017-10-09T17:34:52.572Z,22.23
2017-10-09T17:37:21.688Z,22.20
2017-10-09T17:39:50.060Z,23.00
2017-10-09T17:42:18.404Z,21.30
2017-10-09T17:44:47.364Z,24.10
2017-10-09T17:47:15.722Z,24.70
2017-10-09T17:49:44.169Z,24.07
2017-10-09T17:52:12.540Z,20.33
2017-10-09T17:54:40.900Z,23.87
2017-10-09T17:57:09.583Z,21.23
2017-10-09T17:59:38.702Z,20.67
2017-10-09T18:02:06.946Z,22.50
2017-10-09T18:04:36.085Z,21.70
2017-10-09T18:07:04.450Z,21.73
2017-10-09T18:09:33.534Z,25.13
2017-10-09T18:12:01.921Z,22.90
2017-10-09T18:14:30.314Z,25.80
2017-10-09T18:16:58.690Z,22.90
2017-10-09T18:19:28.097Z,20.37
2017-10-09T18:21:57.026Z,20.90
2017-10-09T18:24:25.400Z,24.20
2017-10-09T18:26:53.772Z,19.73
2017-10-09T18:29:22.176Z,21.50
2017-10-09T18:31:50.368Z,19.37
2017-10-09T18:34:18.730Z,22.40
2017-10-09T18:36:47.105Z,20.20
2017-10-09T18:39:15.489Z,23.23
2017-10-09T18:41:44.467Z,22.50
2017-10-09T18:44:12.846Z,23.60
2017-10-09T18:46:41.323Z,21.27
2017-10-09T18:49:09.802Z,22.13
2017-10-09T18:51:39.030Z,22.07
2017-10-09T18:54:07.412Z,29.17
2017-10-09T18:56:36.468Z,28.27
2017-10-09T18:59:04.842Z,20.93
2017-10-09T19:01:33.079Z,20.33
2017-10-09T19:04:01.497Z,23.43
2017-10-09T19:06:29.866Z,22.47
2017-10-09T19:08:58.246Z,22.87
2017-10-09T19:11:27.854Z,22.63
2017-10-09T19:13:56.758Z,24.23
2017-10-09T19:16:25.225Z,25.70
2017-10-09T19:18:55.303Z,24.00
2017-10-09T19:21:24.442Z,21.40
2017-10-09T19:23:53.203Z,23.40
2017-10-09T19:26:21.581Z,21.70
2017-10-09T19:28:49.952Z,21.80
2017-10-09T19:31:18.335Z,22.33
2017-10-09T19:33:46.721Z,21.57
2017-10-09T19:36:15.116Z,21.20
2017-10-09T19:38:43.499Z,21.80
2017-10-09T19:41:11.944Z,25.53
2017-10-09T19:43:40.347Z,29.10
2017-10-09T19:46:08.998Z,27.67
2017-10-09T19:48:37.677Z,26.03
2017-10-09T19:51:06.012Z,36.23
2017-10-09T19:53:34.331Z,31.77
2017-10-09T19:56:02.691Z,32.00
2017-10-09T19:58:31.329Z,30.50
2017-10-09T20:00:59.505Z,32.90
2017-10-09T20:03:28.655Z,28.97
2017-10-09T20:05:57.156Z,30.77
2017-10-09T20:08:25.581Z,28.13
2017-10-09T20:10:53.987Z,30.90
2017-10-09T20:13:22.465Z,24.83
2017-10-09T20:15:50.852Z,30.70
2017-10-09T20:18:19.319Z,24.57
2017-10-09T20:20:47.681Z,25.30
2017-10-09T20:23:16.048Z,29.53
2017-10-09T20:25:45.205Z,27.70
2017-10-09T20:28:13.588Z,26.07
2017-10-09T20:30:41.981Z,23.30
2017-10-09T20:33:10.394Z,23.07
2017-10-09T20:35:38.775Z,21.30
2017-10-09T20:38:07.457Z,24.47
2017-10-09T20:40:35.660Z,21.10
2017-10-09T20:43:04.040Z,23.63
2017-10-09T20:45:32.614Z,21.90
2017-10-09T20:48:00.977Z,22.90
2017-10-09T20:50:29.389Z,25.33
2017-10-09T20:52:57.784Z,23.43
2017-10-09T20:55:27.109Z,20.40
2017-10-09T20:57:56.094Z,22.47
2017-10-09T21:00:24.469Z,22.37
2017-10-09T21:02:52.853Z,30.87
2017-10-09T21:05:21.211Z,26.10
2017-10-09T21:07:49.606Z,25.87
2017-10-09T21:10:18.229Z,22.30
2017-10-09T21:12:46.629Z,23.80
2017-10-09T21:15:15.758Z,23.37
2017-10-09T21:17:44.168Z,24.93
2017-10-09T21:20:12.534Z,22.80
2017-10-09T21:22:41.086Z,23.53
2017-10-09T21:25:09.466Z,23.33
2017-10-09T21:27:37.841Z,24.17
2017-10-09T21:30:06.203Z,22.80
2017-10-09T21:32:34.645Z,22.90
2017-10-09T21:35:03.020Z,23.03
2017-10-09T21:37:31.566Z,23.83
2017-10-09T21:40:00.161Z,27.13
2017-10-09T21:42:28.559Z,22.53
2017-10-09T21:44:56.923Z,26.93
2017-10-09T21:47:26.965Z,20.70
2017-10-09T21:49:55.322Z,24.80
2017-10-09T21:52:23.690Z,22.80
2017-10-09T21:54:53.046Z,25.27
2017-10-09T21:57:22.294Z,21.90
2017-10-09T21:59:52.176Z,25.63
2017-10-09T22:02:20.539Z,22.33
2017-10-09T22:04:49.111Z,26.63
2017-10-09T22:07:18.231Z,24.57
2017-10-09T22:09:46.605Z,24.43
2017-10-09T22:12:14.964Z,24.17
2017-10-09T22:14:43.351Z,22.77
2017-10-09T22:17:11.715Z,25.37
2017-10-09T22:19:40.086Z,24.27
2017-10-09T22:22:08.560Z,30.40
2017-10-09T22:24:36.937Z,26.67
2017-10-09T22:27:06.729Z,29.17
2017-10-09T22:29:35.863Z,23.27
2017-10-09T22:32:06.564Z,25.73
2017-10-09T22:34:34.939Z,23.80
2017-10-09T22:37:03.324Z,24.50
2017-10-09T22:39:31.695Z,21.90
2017-10-09T22:42:01.340Z,23.90
2017-10-09T22:44:29.716Z,25.03
2017-10-09T22:46:57.953Z,25.80
2017-10-09T22:49:26.302Z,23.83
2017-10-09T22:51:55.630Z,24.57
2017-10-09T22:54:35.306Z,27.77
2017-10-09T22:57:05.801Z,25.60
2017-10-09T22:59:34.175Z,28.70
2017-10-09T23:02:02.542Z,21.67
2017-10-09T23:04:30.918Z,20.63
2017-10-09T23:07:00.734Z,21.37
2017-10-09T23:09:29.658Z,21.33
2017-10-09T23:11:58.022Z,22.47
2017-10-09T23:14:26.400Z,22.47
2017-10-09T23:16:54.767Z,21.50
2017-10-09T23:19:23.128Z,21.00
2017-10-09T23:21:51.706Z,16.50
2017-10-09T23:24:20.219Z,19.43
2017-10-09T23:26:48.759Z,17.70
2017-10-09T23:29:18.672Z,23.80
2017-10-09T23:31:47.718Z,22.53
2017-10-09T23:34:17.938Z,19.43
2017-10-09T23:36:49.185Z,21.97
2017-10-09T23:39:18.088Z,20.30
2017-10-09T23:41:49.558Z,16.63
2017-10-09T23:44:17.939Z,19.40
2017-10-09T23:46:46.318Z,18.80
2017-10-09T23:49:14.669Z,15.43
2017-10-09T23:51:43.490Z,17.63
2017-10-09T23:54:11.864Z,21.23
2017-10-09T23:56:40.230Z,15.43
2017-10-09T23:59:12.803Z,17.13
